Aérodrome :
LOGIN :

S'inscrire | Disclaimer

   EN    FR    IT 

 










Légende :    VFR   VFR Marginal   IFR   IFR Intensif   IFR Très Intensif
Visi : 
Plafond : 
>= 8 km
>= 3000ft
5 à 8 km
1000 à 3000 ft
1500m à 5 km
500 à 1000 ft
800 à 1500m
200 à 500 ft
< 800m
< 200 ft
Symboles :   Orages  Brouillard  Fortes neiges  Fortes précipitations  Vent > 20 kt
SIGMETs :   Divers  Orages  Givrage  Turbulence  Onde Orograph.  Cendres Volcan.






- Altitude de l'aérodrome : 291 ft
- Code IATA : ORY


LFPO - Paris-Orly

DERNIER METAR :
  • 212230Z VRB03KT CAVOK 00/M01 Q1037 NOSIG

METARs EXPIRÉS :
  • 212200Z 02005KT CAVOK M01/M02 Q1038 NOSIG
  • 212130Z 03006KT CAVOK 01/M01 Q1038 NOSIG
  • 212100Z 03006KT CAVOK 01/M01 Q1038 NOSIG
  • 212030Z 03007KT CAVOK 01/M01 Q1038 NOSIG
  • 212000Z 02006KT CAVOK 01/M01 Q1038 NOSIG

TAF TAF LFPO
Valide du 21 à 18h jusqu'au 23 à 00h UTC


211700Z 2118/2224 04006KT CAVOK
PROB30
TEMPO 2202/2208 4000 BR
PROB30
TEMPO 2206/2209 BKN003
ATIS : +33 1 49 75 65 80



MET'MAP, la Météo Aéronautique d'un coup d'oeil ! - Copyright ORBIFLY Décembre 2007 - Disclaimer

ORBIFLY MET'MAP TEAM :

Programmation & Développement : Alexandra Zaïnal
Sur une idée originale de : Baudouin d'Aumeries
Assistance à la programmation : Marc-Olivier Méhu
Soutien technique & logistique : Manuel Goepfert

Contact : metmap@orbifly.com




SOURCES & CREDITS :

   NOAA